Santo Antonio de Padua, Brazil
Current Conditions -  °F | °C
As of 12:00 PM on Thursday 23 Oct 2014 (Local Time) from SBCP Reporting Station
Broken Clouds Broken Clouds  
Wind Chill: 79°   Ceiling: 8000
Heat Index: 80°   Visibility: 6mi
Dew Point: 61°   Wind: 7mph
Humidity: 54%   Direction: 70°ENE
Pressure: 30.15"   Gusts: NA
Location:  21.56°S, 42.19°W
Report Text: SBCP 231400Z 07006KT 9999 SCT020 BKN080 26/16 Q1021
Loading
Personal Weather Stations






























Interactive Weather Map
Tropical Storm Tracking
New forecast layout! Learn more

10-Day Weather Forecast

Advertisements
Track Severe Weather on mobile